SPHY

Andahuaylas Airport

Andahuaylas, Peru
SPHY 181700Z 1818/1918 36010KT 9000 FEW030 BKN060 TX17/1819Z TNM01/1911Z BECMG 1822/1900 00000KT BECMG 1908/1910 CAVOK
Issued Valid From Valid To
Oct-18 @ 17:00 UTC
(16 hours ago)
Oct-18 @ 18:00 UTC
(15 hours ago)
Oct-19 @ 18:00 UTC
(in 9 hours)
Expired Click to View Oct-18 @ 18:00 to Oct-18 @ 22:00
SPHY 181700Z 1818/1918 36010KT 9000 FEW030 BKN060 TX17/1819Z TNM01/1911Z
Wind Visibility Clouds
360° at 10 knots 8,996 meters
  • Few at 3,000' AGL
  • Broken at 6,000' AGL
Expired Click to View Oct-18 @ 22:00 to Oct-19 @ 08:00
BECMG 1822/1900 00000KT
Visibility Clouds
8,996 meters
  • Few at 3,000' AGL
  • Broken at 6,000' AGL
Becoming Oct-19 @ 08:00 to Oct-19 @ 18:00
BECMG 1908/1910 CAVOK
Visibility Clouds Conditions
10,000+ meters
  • No significant clouds
SPHY 181700Z 1818/1918 36010KT 9000 FEW030 BKN060 TX17/1819Z TNM01/1911Z BECMG 1822/1900 00000KT BECMG 1908/1910 CAVOK
Issued Oct-18 @ 17:00 UTC
(16 hours ago)
Valid From Oct-18 @ 18:00 UTC
(15 hours ago)
Valid To Oct-19 @ 18:00 UTC
(in 9 hours)
Oct-18 @ 18:00 - Oct-18 @ 22:00
Wind Visibility
360° at 10 knots 8,996 meters
Clouds
  • Few at 3,000' AGL
  • Broken at 6,000' AGL
Oct-18 @ 22:00 - Oct-19 @ 08:00
Clouds
  • Few at 3,000' AGL
  • Broken at 6,000' AGL
Becoming Oct-19 @ 08:00 - Oct-19 @ 18:00
Clouds
  • No significant clouds
Conditions